Terminal Aerodrome Forecast
Issued by NWS

Home | Current Version | Previous Version | Text Only | Print | Product List | Glossary On
Versions: 1 2 3 4 5 6 7 8 9 10 11 12 13 14 15
000
FTUS42 TJSJ 310500 RRA
TAFJPS
TAF
TJPS 310541Z 3106/0106 06005KT P6SM SKC
     FM311430 14010KT P6SM FEW030 FEW060
     FM311730 VRB12KT P6SM VCTS SCT025CB BKN050
     FM312230 06005KT P6SM SCT025
      AMD NOT SKED 3112/0103=

USA.gov is the U.S. government's official web portal to all federal, state and local government web resources and services.